createdAt,value
2022-11-30T00:01:20.378Z,61.40
2022-11-30T00:03:47.888Z,55.97
2022-11-30T00:06:16.230Z,50.38
2022-11-30T00:08:43.527Z,54.13
2022-11-30T00:11:15.310Z,50.00
2022-11-30T00:13:42.608Z,49.03
2022-11-30T00:16:10.161Z,57.40
2022-11-30T00:18:37.491Z,53.10
2022-11-30T00:21:06.432Z,49.83
2022-11-30T00:23:40.879Z,53.70
2022-11-30T00:26:09.736Z,55.85
2022-11-30T00:28:37.636Z,53.15
2022-11-30T00:31:06.665Z,50.47
2022-11-30T00:33:34.768Z,56.28
2022-11-30T00:36:03.356Z,54.13
2022-11-30T00:38:31.917Z,52.53
2022-11-30T00:40:59.929Z,51.95
2022-11-30T00:43:27.509Z,52.53
2022-11-30T00:45:55.202Z,51.47
2022-11-30T00:48:22.623Z,49.65
2022-11-30T00:50:50.127Z,51.58
2022-11-30T00:53:17.980Z,55.70
2022-11-30T00:55:45.379Z,54.78
2022-11-30T00:58:12.773Z,48.92
2022-11-30T01:00:41.784Z,52.53
2022-11-30T01:03:09.163Z,46.35
2022-11-30T01:05:36.585Z,50.10
2022-11-30T01:08:05.560Z,52.33
2022-11-30T01:10:34.058Z,53.53
2022-11-30T01:13:01.817Z,48.88
2022-11-30T01:15:29.445Z,51.05
2022-11-30T01:17:58.679Z,54.33
2022-11-30T01:20:26.007Z,46.40
2022-11-30T01:22:54.592Z,47.08
2022-11-30T01:25:22.657Z,47.17
2022-11-30T01:27:50.546Z,49.75
2022-11-30T01:30:18.137Z,46.97
2022-11-30T01:32:45.435Z,49.97
2022-11-30T01:35:12.763Z,53.47
2022-11-30T01:37:40.051Z,52.88
2022-11-30T01:40:07.903Z,49.53
2022-11-30T01:42:37.852Z,51.28
2022-11-30T01:45:05.885Z,57.50
2022-11-30T01:47:37.545Z,60.65
2022-11-30T01:50:16.696Z,54.13
2022-11-30T01:52:45.545Z,58.25
2022-11-30T01:55:37.882Z,54.28
2022-11-30T01:58:14.190Z,60.75
2022-11-30T02:00:44.214Z,59.55
2022-11-30T02:03:15.049Z,60.22
2022-11-30T02:05:42.425Z,60.88
2022-11-30T02:08:10.870Z,62.15
2022-11-30T02:10:39.998Z,59.10
2022-11-30T02:13:11.340Z,61.50
2022-11-30T02:15:58.965Z,53.25
2022-11-30T02:18:46.860Z,56.05
2022-11-30T02:21:36.949Z,57.60
2022-11-30T02:24:33.390Z,59.80
2022-11-30T02:27:15.197Z,58.92
2022-11-30T02:30:02.051Z,63.70
2022-11-30T02:32:31.665Z,61.88
2022-11-30T02:34:59.296Z,56.60
2022-11-30T02:37:26.628Z,60.92
2022-11-30T02:39:53.959Z,62.10
2022-11-30T02:42:21.259Z,60.28
2022-11-30T02:44:50.008Z,61.80
2022-11-30T02:47:17.431Z,62.03
2022-11-30T02:49:49.943Z,61.50
2022-11-30T02:52:17.392Z,59.20
2022-11-30T02:54:44.907Z,63.05
2022-11-30T02:57:12.604Z,63.95
2022-11-30T02:59:39.888Z,66.70
2022-11-30T03:02:07.499Z,67.55
2022-11-30T03:04:34.819Z,64.70
2022-11-30T03:07:02.140Z,63.60
2022-11-30T03:09:29.430Z,66.05
2022-11-30T03:11:56.761Z,63.03
2022-11-30T03:14:24.063Z,62.13
2022-11-30T03:16:51.421Z,59.03
2022-11-30T03:19:18.716Z,55.90
2022-11-30T03:21:45.980Z,56.35
2022-11-30T03:24:13.362Z,55.58
2022-11-30T03:26:40.700Z,60.47
2022-11-30T03:29:07.965Z,54.83
2022-11-30T03:31:35.322Z,49.88
2022-11-30T03:34:02.812Z,55.67
2022-11-30T03:36:30.081Z,56.40
2022-11-30T03:38:57.438Z,51.88
2022-11-30T03:41:24.765Z,50.22
2022-11-30T03:43:52.050Z,50.95
2022-11-30T03:46:19.637Z,50.47
2022-11-30T03:48:46.996Z,52.42
2022-11-30T03:51:14.570Z,45.17
2022-11-30T03:53:41.950Z,55.92
2022-11-30T03:56:09.905Z,55.15
2022-11-30T03:58:37.427Z,54.42
2022-11-30T04:01:16.109Z,60.08
2022-11-30T04:03:43.567Z,48.53
2022-11-30T04:06:11.646Z,51.15
2022-11-30T04:08:39.136Z,56.40
2022-11-30T04:11:06.569Z,56.38
2022-11-30T04:13:34.348Z,53.60
2022-11-30T04:16:01.813Z,47.88
2022-11-30T04:18:31.597Z,49.03
2022-11-30T04:20:59.295Z,50.28
2022-11-30T04:23:29.324Z,55.53
2022-11-30T04:25:57.132Z,54.90
2022-11-30T04:28:24.457Z,52.88
2022-11-30T04:30:53.236Z,52.20
2022-11-30T04:33:20.626Z,54.40
2022-11-30T04:35:49.503Z,53.75
2022-11-30T04:38:16.856Z,50.80
2022-11-30T04:40:44.226Z,50.28
2022-11-30T04:43:11.850Z,49.78
2022-11-30T04:45:39.509Z,53.10
2022-11-30T04:48:07.177Z,55.33
2022-11-30T04:50:34.783Z,51.95
2022-11-30T04:53:02.132Z,53.85
2022-11-30T04:55:29.515Z,51.30
2022-11-30T04:57:56.839Z,48.10
2022-11-30T05:00:24.317Z,51.55
2022-11-30T05:02:53.188Z,57.97
2022-11-30T05:05:20.780Z,47.90
2022-11-30T05:07:54.556Z,56.80
2022-11-30T05:10:21.950Z,37.17
2022-11-30T05:12:50.224Z,52.50
2022-11-30T05:15:17.749Z,49.42
2022-11-30T05:17:45.055Z,59.85
2022-11-30T05:20:12.452Z,48.15
2022-11-30T05:22:39.784Z,45.78
2022-11-30T05:25:07.506Z,46.97
2022-11-30T05:27:35.363Z,45.42
2022-11-30T05:30:03.178Z,46.35
2022-11-30T05:32:30.459Z,52.53
2022-11-30T05:34:58.378Z,50.50
2022-11-30T05:37:26.026Z,45.42
2022-11-30T05:39:53.300Z,52.42
2022-11-30T05:42:20.839Z,50.63
2022-11-30T05:44:48.436Z,51.75
2022-11-30T05:47:16.199Z,52.75
2022-11-30T05:49:43.575Z,51.63
2022-11-30T05:52:10.905Z,45.95
2022-11-30T05:54:38.218Z,47.85
2022-11-30T05:57:05.499Z,45.33
2022-11-30T05:59:32.886Z,47.85
2022-11-30T06:02:00.311Z,48.53
2022-11-30T06:04:27.947Z,41.58
2022-11-30T06:06:57.847Z,46.60
2022-11-30T06:09:25.268Z,47.58
2022-11-30T06:11:52.543Z,43.53
2022-11-30T06:14:19.859Z,44.75
2022-11-30T06:16:47.213Z,43.45
2022-11-30T06:19:14.546Z,58.45
2022-11-30T06:21:41.947Z,46.00
2022-11-30T06:24:10.128Z,47.00
2022-11-30T06:26:37.497Z,44.80
2022-11-30T06:29:04.775Z,42.70
2022-11-30T06:31:32.213Z,44.60
2022-11-30T06:33:59.651Z,45.95
2022-11-30T06:36:31.288Z,39.22
2022-11-30T06:39:02.872Z,44.65
2022-11-30T06:41:30.174Z,44.08
2022-11-30T06:43:57.463Z,47.25
2022-11-30T06:46:25.067Z,44.97
2022-11-30T06:48:52.344Z,43.38
2022-11-30T06:51:19.717Z,45.13
2022-11-30T06:53:47.178Z,47.33
2022-11-30T06:56:14.547Z,45.38
2022-11-30T06:58:41.964Z,41.97
2022-11-30T07:01:12.865Z,41.33
2022-11-30T07:03:41.680Z,40.80
2022-11-30T07:06:10.300Z,45.03
2022-11-30T07:08:37.781Z,41.75
2022-11-30T07:11:05.475Z,41.75
2022-11-30T07:13:32.860Z,40.83
2022-11-30T07:16:02.797Z,46.72
2022-11-30T07:18:32.124Z,40.58
2022-11-30T07:21:01.041Z,37.65
2022-11-30T07:23:52.262Z,38.92
2022-11-30T07:26:22.079Z,41.97
2022-11-30T07:28:54.305Z,37.90
2022-11-30T07:31:32.217Z,38.80
2022-11-30T07:34:02.622Z,37.00
2022-11-30T07:36:31.580Z,37.50
2022-11-30T07:38:58.929Z,36.90
2022-11-30T07:41:26.542Z,34.10
2022-11-30T07:43:53.936Z,45.13
2022-11-30T07:46:21.273Z,33.80
2022-11-30T07:48:48.573Z,37.72
2022-11-30T07:51:17.935Z,34.10
2022-11-30T07:53:45.272Z,38.38
2022-11-30T07:56:14.157Z,35.10
2022-11-30T07:58:41.767Z,39.38
2022-11-30T08:01:14.069Z,38.67
2022-11-30T08:03:41.629Z,38.10
2022-11-30T08:06:11.506Z,39.50
2022-11-30T08:08:40.588Z,37.78
2022-11-30T08:11:08.630Z,41.92
2022-11-30T08:13:35.924Z,40.22
2022-11-30T08:16:04.082Z,38.85
2022-11-30T08:18:31.409Z,38.95
2022-11-30T08:20:59.903Z,40.13
2022-11-30T08:23:31.334Z,41.75
2022-11-30T08:26:12.202Z,41.40
2022-11-30T08:28:40.174Z,40.50
2022-11-30T08:31:09.750Z,38.95
2022-11-30T08:33:37.259Z,45.75
2022-11-30T08:36:12.287Z,41.83
2022-11-30T08:38:40.066Z,49.28
2022-11-30T08:41:07.791Z,45.17
2022-11-30T08:43:35.121Z,40.20
2022-11-30T08:46:11.366Z,47.50
2022-11-30T08:48:50.190Z,44.05
2022-11-30T08:51:18.146Z,46.10
2022-11-30T08:53:45.717Z,43.85
2022-11-30T08:56:18.272Z,45.33
2022-11-30T08:58:45.832Z,42.88
2022-11-30T09:01:17.015Z,46.08
2022-11-30T09:03:44.908Z,45.30
2022-11-30T09:06:13.787Z,44.75
2022-11-30T09:08:42.060Z,47.05
2022-11-30T09:11:20.071Z,45.70
2022-11-30T09:13:47.524Z,42.03
2022-11-30T09:16:15.705Z,51.17
2022-11-30T09:18:43.070Z,43.50
2022-11-30T09:21:12.026Z,44.47
2022-11-30T09:23:39.449Z,47.55
2022-11-30T09:26:09.475Z,45.53
2022-11-30T09:28:36.829Z,42.28
2022-11-30T09:31:09.651Z,41.47
2022-11-30T09:33:37.138Z,43.28
2022-11-30T09:36:06.501Z,44.58
2022-11-30T09:38:33.903Z,48.40
2022-11-30T09:41:04.364Z,46.35
2022-11-30T09:43:51.718Z,44.88
2022-11-30T09:46:19.114Z,51.55
2022-11-30T09:49:06.118Z,48.42
2022-11-30T09:51:39.883Z,49.63
2022-11-30T09:54:10.429Z,43.47
2022-11-30T09:56:40.751Z,40.00
2022-11-30T09:59:26.442Z,49.80
2022-11-30T10:01:57.085Z,46.25
2022-11-30T10:04:30.744Z,36.03
2022-11-30T10:07:11.888Z,42.78
2022-11-30T10:10:15.901Z,37.97
2022-11-30T10:12:41.764Z,47.15
2022-11-30T10:15:20.940Z,40.78
2022-11-30T10:18:13.931Z,36.95
2022-11-30T10:21:23.002Z,32.92
2022-11-30T10:24:17.990Z,34.72
2022-11-30T10:26:53.434Z,33.22
2022-11-30T10:29:42.017Z,35.85
2022-11-30T10:32:17.693Z,34.38
2022-11-30T10:34:46.230Z,33.70
2022-11-30T10:37:34.295Z,31.63
2022-11-30T10:40:06.150Z,29.60
2022-11-30T10:43:06.535Z,26.95
2022-11-30T10:45:33.828Z,23.48
2022-11-30T10:48:09.029Z,25.70
2022-11-30T10:50:36.357Z,26.88
2022-11-30T10:53:03.708Z,27.02
2022-11-30T10:55:35.379Z,28.88
2022-11-30T10:58:05.301Z,26.17
2022-11-30T11:00:32.609Z,27.27
2022-11-30T11:02:59.928Z,31.63
2022-11-30T11:05:29.393Z,30.35
2022-11-30T11:08:19.587Z,34.17
2022-11-30T11:10:49.739Z,33.35
2022-11-30T11:13:39.122Z,36.00
2022-11-30T11:16:12.062Z,36.72
2022-11-30T11:18:57.096Z,36.13
2022-11-30T11:21:24.564Z,34.38
2022-11-30T11:23:55.472Z,33.20
2022-11-30T11:26:28.497Z,34.10
2022-11-30T11:28:56.877Z,35.42
2022-11-30T11:31:42.732Z,29.33
2022-11-30T11:34:31.984Z,30.52
2022-11-30T11:37:33.672Z,27.30
2022-11-30T11:40:10.362Z,28.65
2022-11-30T11:42:42.184Z,29.08
2022-11-30T11:45:16.818Z,30.17
2022-11-30T11:47:45.004Z,28.30
2022-11-30T11:50:12.277Z,33.13
2022-11-30T11:52:39.652Z,28.40
2022-11-30T11:55:12.713Z,27.42
2022-11-30T11:57:52.385Z,24.48
2022-11-30T12:00:21.518Z,24.67
2022-11-30T12:02:57.702Z,26.05
2022-11-30T12:05:44.370Z,24.55
2022-11-30T12:08:23.810Z,22.80
2022-11-30T12:11:00.845Z,23.05
2022-11-30T12:13:41.436Z,24.95
2022-11-30T12:16:26.197Z,20.42
2022-11-30T12:19:00.523Z,22.50
2022-11-30T12:21:58.880Z,22.38
2022-11-30T12:24:44.855Z,21.25
2022-11-30T12:27:12.054Z,27.90
2022-11-30T12:30:01.162Z,27.67
2022-11-30T12:33:10.306Z,31.90
2022-11-30T12:36:03.177Z,29.90
2022-11-30T12:38:36.823Z,25.90
2022-11-30T12:41:04.112Z,24.33
2022-11-30T12:44:01.476Z,28.88
2022-11-30T12:46:32.646Z,30.42
2022-11-30T12:49:34.607Z,30.77
2022-11-30T12:52:16.854Z,31.77
2022-11-30T12:54:53.926Z,30.63
2022-11-30T12:57:30.724Z,34.90
2022-11-30T13:00:13.053Z,34.88
2022-11-30T13:03:27.674Z,32.17
2022-11-30T13:05:57.993Z,31.67
2022-11-30T13:08:25.667Z,30.75
2022-11-30T13:10:58.979Z,32.15
2022-11-30T13:13:29.717Z,33.25
2022-11-30T13:15:57.140Z,36.75
2022-11-30T13:18:24.537Z,32.42
2022-11-30T13:21:07.279Z,39.08
2022-11-30T13:23:36.113Z,26.27
2022-11-30T13:26:15.637Z,27.20
2022-11-30T13:28:48.524Z,26.08
2022-11-30T13:31:29.393Z,20.08
2022-11-30T13:33:57.439Z,24.75
2022-11-30T13:36:32.315Z,25.45
2022-11-30T13:39:15.123Z,28.42
2022-11-30T13:41:45.210Z,28.65
2022-11-30T13:44:35.266Z,29.05
2022-11-30T13:47:04.390Z,27.55
2022-11-30T13:49:33.519Z,30.73
2022-11-30T13:52:22.259Z,30.50
2022-11-30T13:54:57.287Z,38.53
2022-11-30T13:57:24.612Z,31.17
2022-11-30T13:59:57.175Z,28.17
2022-11-30T14:05:32.880Z,30.63
2022-11-30T14:08:00.284Z,30.48
2022-11-30T14:10:39.120Z,29.55
2022-11-30T14:13:09.798Z,31.10
2022-11-30T14:15:41.602Z,28.50
2022-11-30T14:18:18.648Z,24.38
2022-11-30T14:20:52.047Z,28.73
2022-11-30T14:23:41.799Z,24.98
2022-11-30T14:26:11.518Z,31.48
2022-11-30T14:28:47.438Z,31.52
2022-11-30T14:31:21.239Z,35.53
2022-11-30T14:33:53.393Z,25.13
2022-11-30T14:36:21.783Z,32.10
2022-11-30T14:38:49.084Z,33.78
2022-11-30T14:41:20.917Z,37.90
2022-11-30T14:44:17.690Z,41.33
2022-11-30T14:46:45.084Z,37.70
2022-11-30T14:49:20.256Z,39.33
2022-11-30T14:52:08.803Z,36.55
2022-11-30T14:54:53.869Z,36.92
2022-11-30T14:59:53.165Z,37.35
2022-11-30T15:02:29.437Z,43.65
2022-11-30T15:04:57.453Z,46.15
2022-11-30T15:07:25.040Z,49.90
2022-11-30T15:10:19.908Z,49.25
2022-11-30T15:12:47.223Z,50.40
2022-11-30T15:15:26.383Z,46.33
2022-11-30T15:18:20.642Z,51.97
2022-11-30T15:21:15.429Z,50.72
2022-11-30T15:23:46.729Z,34.30
2022-11-30T15:26:21.292Z,48.97
2022-11-30T15:28:59.359Z,45.38
2022-11-30T15:31:34.606Z,48.15
2022-11-30T15:34:02.085Z,46.42
2022-11-30T15:36:38.017Z,55.08
2022-11-30T15:39:08.358Z,47.83
2022-11-30T15:41:35.750Z,47.72
2022-11-30T15:44:03.156Z,43.72
2022-11-30T15:46:38.623Z,47.40
2022-11-30T15:49:38.004Z,48.22
2022-11-30T15:52:09.134Z,45.03
2022-11-30T15:54:49.399Z,42.33
2022-11-30T15:57:17.001Z,45.58
2022-11-30T15:59:44.531Z,43.92
2022-11-30T16:02:31.259Z,43.53
2022-11-30T16:04:58.579Z,53.45
2022-11-30T16:07:28.692Z,42.97
2022-11-30T16:10:06.410Z,43.65
2022-11-30T16:12:33.745Z,48.22
2022-11-30T16:15:01.023Z,43.60
2022-11-30T16:17:29.967Z,50.13
2022-11-30T16:19:57.310Z,46.63
2022-11-30T16:22:24.663Z,49.08
2022-11-30T16:24:51.979Z,49.22
2022-11-30T16:27:19.808Z,48.42
2022-11-30T16:29:52.093Z,47.85
2022-11-30T16:32:19.889Z,43.45
2022-11-30T16:34:47.512Z,50.50
2022-11-30T16:37:14.875Z,46.10
2022-11-30T16:39:42.225Z,46.83
2022-11-30T16:42:12.692Z,48.67
2022-11-30T16:44:40.004Z,43.80
2022-11-30T16:47:07.316Z,41.47
2022-11-30T16:49:34.653Z,43.05
2022-11-30T16:52:01.940Z,44.58
2022-11-30T16:54:29.255Z,49.92
2022-11-30T16:56:56.839Z,44.58
2022-11-30T16:59:24.172Z,44.17
2022-11-30T17:01:52.964Z,45.40
2022-11-30T17:04:22.876Z,47.60
2022-11-30T17:06:52.146Z,47.55
2022-11-30T17:09:21.173Z,49.75
2022-11-30T17:11:52.122Z,49.35
2022-11-30T17:14:19.699Z,45.55
2022-11-30T17:16:47.073Z,53.97
2022-11-30T17:19:14.388Z,52.15
2022-11-30T17:21:42.950Z,50.15
2022-11-30T17:24:10.255Z,44.05
2022-11-30T17:26:37.543Z,48.60
2022-11-30T17:29:04.874Z,49.67
2022-11-30T17:31:32.487Z,49.60
2022-11-30T17:33:59.842Z,46.97
2022-11-30T17:36:29.184Z,46.25
2022-11-30T17:38:56.740Z,46.53
2022-11-30T17:41:24.073Z,45.40
2022-11-30T17:43:52.140Z,49.50
2022-11-30T17:46:19.534Z,46.42
2022-11-30T17:48:46.871Z,45.72
2022-11-30T17:51:14.284Z,49.38
2022-11-30T17:53:42.137Z,48.00
2022-11-30T17:56:18.535Z,44.47
2022-11-30T17:58:46.503Z,46.25
2022-11-30T18:01:17.716Z,49.63
2022-11-30T18:03:45.408Z,48.10
2022-11-30T18:06:13.130Z,49.78
2022-11-30T18:08:40.521Z,43.60
2022-11-30T18:11:20.842Z,45.88
2022-11-30T18:13:49.931Z,48.15
2022-11-30T18:16:24.992Z,43.92
2022-11-30T18:18:52.767Z,43.53
2022-11-30T18:21:21.352Z,47.25
2022-11-30T18:23:48.939Z,46.97
2022-11-30T18:26:18.059Z,48.50
2022-11-30T18:28:45.569Z,45.78
2022-11-30T18:31:13.298Z,46.40
2022-11-30T18:33:40.947Z,45.10
2022-11-30T18:36:08.420Z,45.42
2022-11-30T18:38:38.552Z,44.85
2022-11-30T18:41:06.428Z,48.40
2022-11-30T18:43:34.405Z,45.95
2022-11-30T18:46:09.472Z,45.10
2022-11-30T18:48:37.039Z,49.35
2022-11-30T18:51:14.346Z,48.88
2022-11-30T18:53:41.761Z,48.83
2022-11-30T18:56:16.863Z,50.42
2022-11-30T18:58:44.359Z,50.33
2022-11-30T19:01:16.620Z,48.95
2022-11-30T19:03:44.037Z,50.28
2022-11-30T19:06:11.393Z,49.65
2022-11-30T19:08:39.507Z,49.25
2022-11-30T19:11:08.100Z,52.30
2022-11-30T19:13:35.657Z,52.70
2022-11-30T19:16:04.247Z,57.75
2022-11-30T19:18:31.682Z,55.28
2022-11-30T19:20:58.990Z,49.22
2022-11-30T19:23:26.348Z,53.05
2022-11-30T19:25:55.086Z,50.92
2022-11-30T19:28:22.396Z,55.72
2022-11-30T19:30:49.701Z,53.15
2022-11-30T19:33:16.961Z,51.35
2022-11-30T19:35:44.238Z,56.55
2022-11-30T19:38:11.558Z,53.85
2022-11-30T19:40:38.994Z,49.95
2022-11-30T19:43:06.291Z,56.15
2022-11-30T19:45:34.480Z,57.83
2022-11-30T19:48:01.812Z,57.95
2022-11-30T19:50:29.157Z,53.00
2022-11-30T19:52:57.126Z,56.33
2022-11-30T19:55:24.434Z,51.50
2022-11-30T19:57:51.755Z,56.05
2022-11-30T20:00:19.452Z,62.30
2022-11-30T20:02:49.452Z,56.47
2022-11-30T20:05:17.524Z,55.08
2022-11-30T20:07:44.985Z,58.15
2022-11-30T20:10:15.270Z,57.05
2022-11-30T20:12:42.612Z,52.42
2022-11-30T20:15:10.347Z,57.58
2022-11-30T20:17:37.672Z,63.65
2022-11-30T20:20:05.625Z,54.38
2022-11-30T20:22:33.709Z,61.63
2022-11-30T20:25:01.019Z,58.15
2022-11-30T20:27:28.355Z,59.58
2022-11-30T20:29:56.292Z,56.47
2022-11-30T20:32:24.125Z,61.58
2022-11-30T20:34:51.652Z,54.55
2022-11-30T20:37:19.099Z,54.83
2022-11-30T20:39:46.559Z,54.95
2022-11-30T20:42:13.951Z,59.78
2022-11-30T20:44:41.239Z,53.10
2022-11-30T20:47:08.611Z,59.47
2022-11-30T20:49:35.888Z,57.80
2022-11-30T20:52:03.740Z,59.25
2022-11-30T20:54:31.578Z,58.13
2022-11-30T20:56:59.208Z,61.40
2022-11-30T20:59:26.825Z,63.17
2022-11-30T21:01:55.094Z,62.88
2022-11-30T21:04:23.696Z,65.63
2022-11-30T21:06:51.066Z,64.78
2022-11-30T21:09:19.094Z,61.95
2022-11-30T21:11:47.215Z,58.40
2022-11-30T21:14:14.677Z,66.68
2022-11-30T21:16:42.072Z,63.15
2022-11-30T21:19:10.684Z,61.78
2022-11-30T21:21:38.075Z,60.50
2022-11-30T21:24:07.521Z,61.38
2022-11-30T21:26:39.646Z,66.53
2022-11-30T21:29:16.643Z,62.33
2022-11-30T21:31:44.718Z,60.78
2022-11-30T21:34:12.183Z,62.58
2022-11-30T21:36:39.483Z,61.42
2022-11-30T21:39:07.590Z,62.13
2022-11-30T21:41:36.352Z,62.72
2022-11-30T21:44:04.278Z,62.75
2022-11-30T21:46:31.858Z,60.10
2022-11-30T21:48:59.367Z,62.78
2022-11-30T21:51:27.733Z,59.88
2022-11-30T21:53:57.300Z,65.20
2022-11-30T21:56:27.357Z,62.33
2022-11-30T21:58:54.840Z,66.22
2022-11-30T22:01:27.618Z,60.53
2022-11-30T22:03:55.916Z,68.47
2022-11-30T22:06:23.731Z,68.07
2022-11-30T22:08:51.032Z,59.65
2022-11-30T22:11:19.770Z,60.20
2022-11-30T22:13:53.579Z,57.42
2022-11-30T22:16:22.120Z,45.30
2022-11-30T22:18:52.117Z,66.53
2022-11-30T22:21:21.288Z,60.38
2022-11-30T22:23:53.381Z,65.85
2022-11-30T22:26:25.169Z,57.03
2022-11-30T22:28:57.278Z,60.22
2022-11-30T22:31:33.448Z,60.42
2022-11-30T22:34:00.843Z,65.75
2022-11-30T22:36:29.592Z,69.68
2022-11-30T22:39:01.522Z,62.50
2022-11-30T22:41:28.948Z,65.43
2022-11-30T22:43:56.433Z,63.67
2022-11-30T22:46:25.367Z,61.47
2022-11-30T22:48:52.859Z,65.05
2022-11-30T22:51:21.666Z,60.03
2022-11-30T22:53:49.266Z,53.85
2022-11-30T22:56:21.217Z,61.05
2022-11-30T22:58:49.470Z,58.28
2022-11-30T23:01:19.105Z,56.60
2022-11-30T23:03:47.285Z,56.95
2022-11-30T23:06:15.553Z,53.13
2022-11-30T23:08:43.142Z,54.92
2022-11-30T23:11:12.269Z,68.53
2022-11-30T23:13:39.829Z,61.70
2022-11-30T23:16:07.761Z,62.15
2022-11-30T23:18:40.054Z,59.53
2022-11-30T23:21:18.433Z,61.83
2022-11-30T23:23:46.061Z,61.97
2022-11-30T23:26:15.052Z,66.65
2022-11-30T23:28:42.990Z,64.13
2022-11-30T23:31:34.253Z,70.32
2022-11-30T23:33:59.595Z,71.53
2022-11-30T23:36:26.857Z,73.05
2022-11-30T23:38:56.842Z,74.85
2022-11-30T23:41:24.121Z,74.80
2022-11-30T23:43:51.582Z,67.13
2022-11-30T23:46:18.926Z,71.00
2022-11-30T23:48:46.344Z,70.82
2022-11-30T23:51:13.602Z,70.13
2022-11-30T23:53:40.929Z,77.97
2022-11-30T23:56:11.169Z,75.90
2022-11-30T23:58:39.615Z,75.53
